sensor_id;sensor_type;location;lat;lon;timestamp;P1;durP1;ratioP1;P2;durP2;ratioP2
60416;SDS011;46263;44.726;10.396;2023-03-23T00:01:02;4.07;;;2.20;;
60416;SDS011;46263;44.726;10.396;2023-03-23T00:03:29;3.58;;;2.28;;
60416;SDS011;46263;44.726;10.396;2023-03-23T00:05:56;4.53;;;2.00;;
60416;SDS011;46263;44.726;10.396;2023-03-23T00:08:29;2.80;;;2.30;;
60416;SDS011;46263;44.726;10.396;2023-03-23T00:10:56;4.30;;;2.58;;
60416;SDS011;46263;44.726;10.396;2023-03-23T00:13:23;2.85;;;2.30;;
60416;SDS011;46263;44.726;10.396;2023-03-23T00:15:49;2.88;;;2.63;;
60416;SDS011;46263;44.726;10.396;2023-03-23T00:18:17;16.33;;;10.43;;
60416;SDS011;46263;44.726;10.396;2023-03-23T00:20:53;3.47;;;2.88;;
60416;SDS011;46263;44.726;10.396;2023-03-23T00:23:21;5.07;;;2.80;;
60416;SDS011;46263;44.726;10.396;2023-03-23T00:25:49;3.22;;;2.92;;
60416;SDS011;46263;44.726;10.396;2023-03-23T00:28:21;3.20;;;2.90;;
60416;SDS011;46263;44.726;10.396;2023-03-23T00:30:53;2.90;;;2.65;;
60416;SDS011;46263;44.726;10.396;2023-03-23T00:33:26;3.10;;;2.65;;
60416;SDS011;46263;44.726;10.396;2023-03-23T00:35:53;3.92;;;2.63;;
60416;SDS011;46263;44.726;10.396;2023-03-23T00:38:20;3.10;;;2.53;;
60416;SDS011;46263;44.726;10.396;2023-03-23T00:40:49;2.97;;;2.45;;
60416;SDS011;46263;44.726;10.396;2023-03-23T00:43:17;2.50;;;2.30;;
60416;SDS011;46263;44.726;10.396;2023-03-23T00:45:44;3.63;;;2.53;;
60416;SDS011;46263;44.726;10.396;2023-03-23T00:48:14;3.35;;;2.50;;
60416;SDS011;46263;44.726;10.396;2023-03-23T00:50:40;2.75;;;2.55;;
60416;SDS011;46263;44.726;10.396;2023-03-23T00:53:06;2.45;;;2.22;;
60416;SDS011;46263;44.726;10.396;2023-03-23T00:55:32;4.05;;;2.30;;
60416;SDS011;46263;44.726;10.396;2023-03-23T00:57:58;3.53;;;2.50;;
60416;SDS011;46263;44.726;10.396;2023-03-23T01:00:24;3.45;;;2.50;;
60416;SDS011;46263;44.726;10.396;2023-03-23T01:02:49;3.28;;;2.72;;
60416;SDS011;46263;44.726;10.396;2023-03-23T01:05:16;2.78;;;2.50;;
60416;SDS011;46263;44.726;10.396;2023-03-23T01:07:43;3.65;;;2.38;;
60416;SDS011;46263;44.726;10.396;2023-03-23T01:10:09;4.30;;;2.50;;
60416;SDS011;46263;44.726;10.396;2023-03-23T01:12:42;4.05;;;2.22;;
60416;SDS011;46263;44.726;10.396;2023-03-23T01:15:09;2.97;;;2.42;;
60416;SDS011;46263;44.726;10.396;2023-03-23T01:17:39;2.92;;;2.38;;
60416;SDS011;46263;44.726;10.396;2023-03-23T01:20:05;3.42;;;2.38;;
60416;SDS011;46263;44.726;10.396;2023-03-23T01:22:31;2.97;;;2.03;;
60416;SDS011;46263;44.726;10.396;2023-03-23T01:24:57;3.15;;;2.28;;
60416;SDS011;46263;44.726;10.396;2023-03-23T01:27:23;2.38;;;2.03;;
60416;SDS011;46263;44.726;10.396;2023-03-23T01:29:48;2.10;;;1.90;;
60416;SDS011;46263;44.726;10.396;2023-03-23T01:32:14;2.70;;;2.17;;
60416;SDS011;46263;44.726;10.396;2023-03-23T01:34:39;2.53;;;2.33;;
60416;SDS011;46263;44.726;10.396;2023-03-23T01:37:05;2.63;;;2.22;;
60416;SDS011;46263;44.726;10.396;2023-03-23T01:39:30;2.45;;;2.28;;
60416;SDS011;46263;44.726;10.396;2023-03-23T01:41:56;2.25;;;2.13;;
60416;SDS011;46263;44.726;10.396;2023-03-23T01:46:47;2.17;;;1.80;;
60416;SDS011;46263;44.726;10.396;2023-03-23T01:49:15;1.98;;;1.77;;
60416;SDS011;46263;44.726;10.396;2023-03-23T01:51:57;2.10;;;1.92;;
60416;SDS011;46263;44.726;10.396;2023-03-23T01:54:26;2.28;;;2.08;;
60416;SDS011;46263;44.726;10.396;2023-03-23T01:57:09;3.40;;;2.03;;
60416;SDS011;46263;44.726;10.396;2023-03-23T01:59:38;2.15;;;1.90;;
60416;SDS011;46263;44.726;10.396;2023-03-23T02:02:08;2.28;;;1.90;;
60416;SDS011;46263;44.726;10.396;2023-03-23T02:04:36;2.78;;;2.00;;
60416;SDS011;46263;44.726;10.396;2023-03-23T02:07:02;2.38;;;1.90;;
60416;SDS011;46263;44.726;10.396;2023-03-23T02:09:29;2.83;;;1.90;;
60416;SDS011;46263;44.726;10.396;2023-03-23T02:11:55;2.40;;;2.20;;
60416;SDS011;46263;44.726;10.396;2023-03-23T02:14:21;2.20;;;2.00;;
60416;SDS011;46263;44.726;10.396;2023-03-23T02:16:55;2.42;;;2.00;;
60416;SDS011;46263;44.726;10.396;2023-03-23T02:22:13;2.00;;;1.90;;
60416;SDS011;46263;44.726;10.396;2023-03-23T02:24:58;2.90;;;2.33;;
60416;SDS011;46263;44.726;10.396;2023-03-23T02:35:35;2.90;;;2.10;;
60416;SDS011;46263;44.726;10.396;2023-03-23T02:38:11;4.43;;;2.53;;
60416;SDS011;46263;44.726;10.396;2023-03-23T02:40:45;2.57;;;2.30;;
60416;SDS011;46263;44.726;10.396;2023-03-23T02:43:20;2.47;;;2.00;;
60416;SDS011;46263;44.726;10.396;2023-03-23T02:45:49;2.50;;;2.25;;
60416;SDS011;46263;44.726;10.396;2023-03-23T02:48:17;4.95;;;2.30;;
60416;SDS011;46263;44.726;10.396;2023-03-23T02:50:46;2.88;;;2.58;;
60416;SDS011;46263;44.726;10.396;2023-03-23T02:53:18;4.32;;;2.40;;
60416;SDS011;46263;44.726;10.396;2023-03-23T02:55:47;3.25;;;2.60;;
60416;SDS011;46263;44.726;10.396;2023-03-23T02:58:13;3.90;;;2.72;;
60416;SDS011;46263;44.726;10.396;2023-03-23T03:00:40;3.83;;;2.50;;
60416;SDS011;46263;44.726;10.396;2023-03-23T03:03:08;2.70;;;2.50;;
60416;SDS011;46263;44.726;10.396;2023-03-23T03:05:40;4.68;;;2.88;;
60416;SDS011;46263;44.726;10.396;2023-03-23T03:11:11;3.10;;;2.80;;
60416;SDS011;46263;44.726;10.396;2023-03-23T03:13:49;3.65;;;2.65;;
60416;SDS011;46263;44.726;10.396;2023-03-23T03:16:26;4.50;;;2.80;;
60416;SDS011;46263;44.726;10.396;2023-03-23T03:21:50;3.15;;;2.50;;
60416;SDS011;46263;44.726;10.396;2023-03-23T03:24:18;4.88;;;2.28;;
60416;SDS011;46263;44.726;10.396;2023-03-23T03:26:47;2.67;;;2.47;;
60416;SDS011;46263;44.726;10.396;2023-03-23T03:29:17;3.97;;;2.38;;
60416;SDS011;46263;44.726;10.396;2023-03-23T03:31:46;2.55;;;2.30;;
60416;SDS011;46263;44.726;10.396;2023-03-23T03:34:14;3.25;;;2.42;;
60416;SDS011;46263;44.726;10.396;2023-03-23T03:36:43;2.10;;;2.00;;
60416;SDS011;46263;44.726;10.396;2023-03-23T03:39:11;2.28;;;2.08;;
60416;SDS011;46263;44.726;10.396;2023-03-23T03:41:40;2.53;;;2.30;;
60416;SDS011;46263;44.726;10.396;2023-03-23T03:44:06;2.60;;;2.30;;
60416;SDS011;46263;44.726;10.396;2023-03-23T03:46:36;2.67;;;2.15;;
60416;SDS011;46263;44.726;10.396;2023-03-23T03:49:03;1.90;;;1.80;;
60416;SDS011;46263;44.726;10.396;2023-03-23T03:51:30;2.30;;;2.10;;
60416;SDS011;46263;44.726;10.396;2023-03-23T03:53:57;2.33;;;2.10;;
60416;SDS011;46263;44.726;10.396;2023-03-23T03:56:23;2.63;;;2.42;;
60416;SDS011;46263;44.726;10.396;2023-03-23T03:58:49;2.67;;;2.00;;
60416;SDS011;46263;44.726;10.396;2023-03-23T04:01:16;2.38;;;2.17;;
60416;SDS011;46263;44.726;10.396;2023-03-23T04:03:43;3.15;;;2.17;;
60416;SDS011;46263;44.726;10.396;2023-03-23T04:06:09;2.50;;;2.30;;
60416;SDS011;46263;44.726;10.396;2023-03-23T04:08:37;2.20;;;2.00;;
60416;SDS011;46263;44.726;10.396;2023-03-23T04:11:04;5.60;;;2.10;;
60416;SDS011;46263;44.726;10.396;2023-03-23T04:13:30;2.03;;;1.90;;
60416;SDS011;46263;44.726;10.396;2023-03-23T04:15:55;2.08;;;1.88;;
60416;SDS011;46263;44.726;10.396;2023-03-23T04:18:21;3.22;;;1.90;;
60416;SDS011;46263;44.726;10.396;2023-03-23T04:20:48;1.85;;;1.75;;
60416;SDS011;46263;44.726;10.396;2023-03-23T04:23:14;2.15;;;2.00;;
60416;SDS011;46263;44.726;10.396;2023-03-23T04:25:48;2.72;;;2.10;;
60416;SDS011;46263;44.726;10.396;2023-03-23T04:28:15;2.10;;;1.90;;
60416;SDS011;46263;44.726;10.396;2023-03-23T04:30:44;2.05;;;1.90;;
60416;SDS011;46263;44.726;10.396;2023-03-23T04:33:13;2.50;;;2.30;;
60416;SDS011;46263;44.726;10.396;2023-03-23T04:35:43;3.53;;;2.00;;
60416;SDS011;46263;44.726;10.396;2023-03-23T04:38:10;1.73;;;1.63;;
60416;SDS011;46263;44.726;10.396;2023-03-23T04:40:37;2.28;;;2.17;;
60416;SDS011;46263;44.726;10.396;2023-03-23T04:43:04;2.60;;;2.40;;
60416;SDS011;46263;44.726;10.396;2023-03-23T04:45:31;3.60;;;2.10;;
60416;SDS011;46263;44.726;10.396;2023-03-23T04:47:58;3.38;;;2.00;;
60416;SDS011;46263;44.726;10.396;2023-03-23T04:50:24;4.35;;;2.30;;
60416;SDS011;46263;44.726;10.396;2023-03-23T04:52:56;2.72;;;2.30;;
60416;SDS011;46263;44.726;10.396;2023-03-23T04:55:23;2.55;;;2.33;;
60416;SDS011;46263;44.726;10.396;2023-03-23T04:57:49;3.50;;;2.75;;
60416;SDS011;46263;44.726;10.396;2023-03-23T05:00:15;3.53;;;2.40;;
60416;SDS011;46263;44.726;10.396;2023-03-23T05:02:45;2.47;;;2.30;;
60416;SDS011;46263;44.726;10.396;2023-03-23T05:05:17;3.03;;;2.45;;
60416;SDS011;46263;44.726;10.396;2023-03-23T05:07:44;2.47;;;2.28;;
60416;SDS011;46263;44.726;10.396;2023-03-23T05:10:10;3.88;;;2.63;;
60416;SDS011;46263;44.726;10.396;2023-03-23T05:12:38;4.15;;;2.80;;
60416;SDS011;46263;44.726;10.396;2023-03-23T05:15:04;5.30;;;2.63;;
60416;SDS011;46263;44.726;10.396;2023-03-23T05:17:31;2.78;;;2.58;;
60416;SDS011;46263;44.726;10.396;2023-03-23T05:19:58;2.50;;;2.30;;
60416;SDS011;46263;44.726;10.396;2023-03-23T05:22:26;3.25;;;2.60;;
60416;SDS011;46263;44.726;10.396;2023-03-23T05:24:52;4.90;;;2.53;;
60416;SDS011;46263;44.726;10.396;2023-03-23T05:27:18;3.10;;;2.78;;
60416;SDS011;46263;44.726;10.396;2023-03-23T05:29:44;3.60;;;2.90;;
60416;SDS011;46263;44.726;10.396;2023-03-23T05:32:13;3.80;;;2.72;;
60416;SDS011;46263;44.726;10.396;2023-03-23T05:34:39;3.33;;;2.42;;
60416;SDS011;46263;44.726;10.396;2023-03-23T05:37:05;3.90;;;2.65;;
60416;SDS011;46263;44.726;10.396;2023-03-23T05:39:30;3.83;;;2.70;;
60416;SDS011;46263;44.726;10.396;2023-03-23T05:41:57;2.55;;;2.33;;
60416;SDS011;46263;44.726;10.396;2023-03-23T05:44:23;4.18;;;2.60;;
60416;SDS011;46263;44.726;10.396;2023-03-23T05:46:49;4.80;;;2.72;;
60416;SDS011;46263;44.726;10.396;2023-03-23T05:49:15;2.63;;;2.42;;
60416;SDS011;46263;44.726;10.396;2023-03-23T05:51:42;3.00;;;2.38;;
60416;SDS011;46263;44.726;10.396;2023-03-23T05:54:09;2.95;;;2.25;;
60416;SDS011;46263;44.726;10.396;2023-03-23T05:56:35;2.75;;;2.55;;
60416;SDS011;46263;44.726;10.396;2023-03-23T05:59:01;3.10;;;2.30;;
60416;SDS011;46263;44.726;10.396;2023-03-23T06:01:27;3.60;;;2.50;;
60416;SDS011;46263;44.726;10.396;2023-03-23T06:03:53;2.75;;;2.55;;
60416;SDS011;46263;44.726;10.396;2023-03-23T06:06:26;2.50;;;2.30;;
60416;SDS011;46263;44.726;10.396;2023-03-23T06:08:54;2.13;;;2.03;;
60416;SDS011;46263;44.726;10.396;2023-03-23T06:11:21;2.97;;;2.30;;
60416;SDS011;46263;44.726;10.396;2023-03-23T06:13:48;2.40;;;2.20;;
60416;SDS011;46263;44.726;10.396;2023-03-23T06:16:14;2.90;;;2.17;;
60416;SDS011;46263;44.726;10.396;2023-03-23T06:18:39;2.63;;;2.42;;
60416;SDS011;46263;44.726;10.396;2023-03-23T06:21:06;5.13;;;2.35;;
60416;SDS011;46263;44.726;10.396;2023-03-23T06:23:33;2.17;;;1.98;;
60416;SDS011;46263;44.726;10.396;2023-03-23T06:26:03;2.95;;;2.22;;
60416;SDS011;46263;44.726;10.396;2023-03-23T06:28:30;3.72;;;2.42;;
60416;SDS011;46263;44.726;10.396;2023-03-23T06:30:58;4.05;;;2.67;;
60416;SDS011;46263;44.726;10.396;2023-03-23T06:33:25;4.90;;;2.47;;
60416;SDS011;46263;44.726;10.396;2023-03-23T06:35:50;2.97;;;2.65;;
60416;SDS011;46263;44.726;10.396;2023-03-23T06:38:16;5.57;;;2.90;;
60416;SDS011;46263;44.726;10.396;2023-03-23T06:40:42;6.00;;;2.80;;
60416;SDS011;46263;44.726;10.396;2023-03-23T06:43:11;3.78;;;3.08;;
60416;SDS011;46263;44.726;10.396;2023-03-23T06:45:36;3.30;;;2.67;;
60416;SDS011;46263;44.726;10.396;2023-03-23T06:48:02;6.30;;;3.15;;
60416;SDS011;46263;44.726;10.396;2023-03-23T06:50:27;4.93;;;2.50;;
60416;SDS011;46263;44.726;10.396;2023-03-23T06:52:53;4.50;;;2.70;;
60416;SDS011;46263;44.726;10.396;2023-03-23T06:55:18;4.43;;;3.03;;
60416;SDS011;46263;44.726;10.396;2023-03-23T06:57:44;3.13;;;2.40;;
60416;SDS011;46263;44.726;10.396;2023-03-23T07:00:11;3.85;;;2.38;;
60416;SDS011;46263;44.726;10.396;2023-03-23T07:02:39;2.75;;;2.53;;
60416;SDS011;46263;44.726;10.396;2023-03-23T07:05:05;3.97;;;2.60;;
60416;SDS011;46263;44.726;10.396;2023-03-23T07:07:32;3.30;;;3.00;;
60416;SDS011;46263;44.726;10.396;2023-03-23T07:09:58;4.20;;;2.72;;
60416;SDS011;46263;44.726;10.396;2023-03-23T07:12:23;3.95;;;2.55;;
60416;SDS011;46263;44.726;10.396;2023-03-23T07:14:49;4.90;;;3.00;;
60416;SDS011;46263;44.726;10.396;2023-03-23T07:17:14;3.20;;;2.85;;
60416;SDS011;46263;44.726;10.396;2023-03-23T07:19:40;4.85;;;2.92;;
60416;SDS011;46263;44.726;10.396;2023-03-23T07:22:06;3.30;;;3.00;;
60416;SDS011;46263;44.726;10.396;2023-03-23T07:24:32;5.00;;;3.22;;
60416;SDS011;46263;44.726;10.396;2023-03-23T07:26:59;4.65;;;3.05;;
60416;SDS011;46263;44.726;10.396;2023-03-23T07:29:25;4.75;;;3.20;;
60416;SDS011;46263;44.726;10.396;2023-03-23T07:31:52;5.38;;;3.03;;
60416;SDS011;46263;44.726;10.396;2023-03-23T07:34:17;3.72;;;2.80;;
60416;SDS011;46263;44.726;10.396;2023-03-23T07:36:44;5.00;;;3.20;;
60416;SDS011;46263;44.726;10.396;2023-03-23T07:39:10;3.78;;;3.28;;
60416;SDS011;46263;44.726;10.396;2023-03-23T07:41:37;3.22;;;2.90;;
60416;SDS011;46263;44.726;10.396;2023-03-23T07:44:03;3.45;;;3.13;;
60416;SDS011;46263;44.726;10.396;2023-03-23T07:46:29;3.83;;;3.10;;
60416;SDS011;46263;44.726;10.396;2023-03-23T07:48:54;4.50;;;3.17;;
60416;SDS011;46263;44.726;10.396;2023-03-23T07:51:21;3.97;;;3.22;;
60416;SDS011;46263;44.726;10.396;2023-03-23T07:53:47;4.40;;;3.00;;
60416;SDS011;46263;44.726;10.396;2023-03-23T07:56:13;6.32;;;3.25;;
60416;SDS011;46263;44.726;10.396;2023-03-23T07:58:40;6.60;;;3.55;;
60416;SDS011;46263;44.726;10.396;2023-03-23T08:01:06;4.10;;;3.15;;
60416;SDS011;46263;44.726;10.396;2023-03-23T08:03:32;6.72;;;3.90;;
60416;SDS011;46263;44.726;10.396;2023-03-23T08:06:00;7.93;;;4.18;;
60416;SDS011;46263;44.726;10.396;2023-03-23T08:08:26;10.18;;;3.97;;
60416;SDS011;46263;44.726;10.396;2023-03-23T08:10:51;8.05;;;3.70;;
60416;SDS011;46263;44.726;10.396;2023-03-23T08:13:17;7.82;;;3.65;;
60416;SDS011;46263;44.726;10.396;2023-03-23T08:15:43;9.93;;;4.32;;
60416;SDS011;46263;44.726;10.396;2023-03-23T08:18:09;5.95;;;4.10;;
60416;SDS011;46263;44.726;10.396;2023-03-23T08:20:35;8.80;;;4.90;;
60416;SDS011;46263;44.726;10.396;2023-03-23T08:23:01;9.32;;;4.75;;
60416;SDS011;46263;44.726;10.396;2023-03-23T08:25:28;5.93;;;4.53;;
60416;SDS011;46263;44.726;10.396;2023-03-23T08:27:56;7.80;;;5.18;;
60416;SDS011;46263;44.726;10.396;2023-03-23T08:30:23;5.95;;;4.18;;
60416;SDS011;46263;44.726;10.396;2023-03-23T08:32:51;9.90;;;6.10;;
60416;SDS011;46263;44.726;10.396;2023-03-23T08:35:17;10.48;;;5.60;;
60416;SDS011;46263;44.726;10.396;2023-03-23T08:37:44;8.20;;;5.85;;
60416;SDS011;46263;44.726;10.396;2023-03-23T08:40:11;14.40;;;6.25;;
60416;SDS011;46263;44.726;10.396;2023-03-23T08:42:39;7.93;;;5.70;;
60416;SDS011;46263;44.726;10.396;2023-03-23T08:45:08;9.85;;;5.95;;
60416;SDS011;46263;44.726;10.396;2023-03-23T08:47:35;9.70;;;6.50;;
60416;SDS011;46263;44.726;10.396;2023-03-23T08:50:02;10.30;;;6.13;;
